Time;durP1;ratioP1;P1;durP2;ratioP2;P2;SDS_P1;SDS_P2;PMS_P1;PMS_P2;Temp;Humidity;BMP_temperature;BMP_pressure;BME280_temperature;BME280_humidity;BME280_pressure;Samples;Min_cycle;Max_cycle;Signal;HPM_P1;HPM_P2
2021/01/20 00:01:15;;;;;;;9.50;5.10;;;;;;;;;;5067599;28;20056;-46
2021/01/20 00:03:41;;;;;;;10.90;5.30;;;;;;;;;;5066558;28;20236;-46
2021/01/20 00:06:07;;;;;;;10.40;5.68;;;;;;;;;;5066717;28;20055;-46
2021/01/20 00:08:34;;;;;;;12.70;5.78;;;;;;;;;;5067818;28;20067;-46
2021/01/20 00:11:01;;;;;;;13.43;6.20;;;;;;;;;;5067044;28;20028;-48
2021/01/20 00:13:28;;;;;;;14.85;7.30;;;;;;;;;;5063310;28;20508;-46
2021/01/20 00:15:54;;;;;;;12.32;4.80;;;;;;;;;;5047469;28;20025;-44
2021/01/20 00:18:21;;;;;;;8.90;4.50;;;;;;;;;;5047325;28;20028;-45
2021/01/20 00:20:47;;;;;;;11.32;3.97;;;;;;;;;;5047342;28;20159;-44
2021/01/20 00:23:14;;;;;;;10.00;3.88;;;;;;;;;;5047395;28;20035;-45
2021/01/20 00:25:41;;;;;;;10.55;4.88;;;;;;;;;;5047557;28;20029;-46
2021/01/20 00:28:08;;;;;;;7.63;4.28;;;;;;;;;;5046852;28;20518;-46
2021/01/20 00:30:34;;;;;;;10.35;4.65;;;;;;;;;;5047778;28;20033;-45
2021/01/20 00:33:00;;;;;;;11.63;4.22;;;;;;;;;;5046818;28;20064;-46
2021/01/20 00:35:26;;;;;;;9.43;4.28;;;;;;;;;;5047372;28;20021;-45
2021/01/20 00:37:52;;;;;;;11.85;4.65;;;;;;;;;;5046199;28;20227;-45
2021/01/20 00:40:18;;;;;;;7.63;4.13;;;;;;;;;;5047074;28;20028;-45
2021/01/20 00:42:45;;;;;;;8.20;3.78;;;;;;;;;;5046708;28;20036;-45
2021/01/20 00:45:12;;;;;;;11.35;4.80;;;;;;;;;;5047179;28;20399;-46
2021/01/20 00:47:38;;;;;;;10.32;4.55;;;;;;;;;;5047295;28;20033;-45
2021/01/20 00:50:05;;;;;;;6.93;3.80;;;;;;;;;;5047487;28;20040;-45
2021/01/20 00:52:31;;;;;;;7.00;3.70;;;;;;;;;;5046761;28;20029;-46
2021/01/20 00:54:57;;;;;;;8.55;4.50;;;;;;;;;;5046721;28;20021;-46
2021/01/20 00:57:24;;;;;;;9.13;4.55;;;;;;;;;;5046938;28;20033;-44
2021/01/20 00:59:50;;;;;;;12.35;5.25;;;;;;;;;;5046255;28;20029;-46
2021/01/20 01:02:16;;;;;;;7.43;4.22;;;;;;;;;;5046933;28;20036;-46
2021/01/20 01:04:42;;;;;;;10.25;4.93;;;;;;;;;;5046127;28;20029;-46
2021/01/20 01:07:09;;;;;;;9.57;4.53;;;;;;;;;;5046919;28;20040;-45
2021/01/20 01:09:36;;;;;;;9.25;3.97;;;;;;;;;;5046882;28;20021;-44
2021/01/20 01:12:02;;;;;;;8.77;4.22;;;;;;;;;;5046527;28;20029;-44
2021/01/20 01:14:28;;;;;;;7.88;3.75;;;;;;;;;;5046431;28;20086;-46
2021/01/20 01:16:54;;;;;;;7.13;3.78;;;;;;;;;;5046347;28;20033;-45
2021/01/20 01:19:20;;;;;;;6.93;3.63;;;;;;;;;;5046371;28;20170;-44
2021/01/20 01:21:49;;;;;;;8.40;4.35;;;;;;;;;;5046204;28;20236;-45
2021/01/20 01:24:15;;;;;;;10.82;4.13;;;;;;;;;;5045914;28;20028;-45
2021/01/20 01:26:41;;;;;;;8.63;3.55;;;;;;;;;;5046091;28;20483;-46
2021/01/20 01:29:07;;;;;;;10.55;4.22;;;;;;;;;;5047221;28;20056;-45
2021/01/20 01:31:33;;;;;;;7.90;4.05;;;;;;;;;;5046927;28;20032;-44
2021/01/20 01:34:00;;;;;;;4.95;2.97;;;;;;;;;;5045818;28;20028;-45
2021/01/20 01:36:26;;;;;;;5.65;2.75;;;;;;;;;;5046231;28;20029;-45
2021/01/20 01:38:54;;;;;;;8.50;4.10;;;;;;;;;;5044703;28;20040;-45
2021/01/20 01:41:19;;;;;;;4.90;3.03;;;;;;;;;;5046455;28;20419;-45
2021/01/20 01:43:46;;;;;;;7.75;3.30;;;;;;;;;;5045632;28;20333;-45
2021/01/20 01:46:12;;;;;;;4.85;2.63;;;;;;;;;;5045884;28;20407;-46
2021/01/20 01:48:39;;;;;;;5.30;2.70;;;;;;;;;;5045293;28;20028;-45
2021/01/20 01:51:05;;;;;;;4.05;2.55;;;;;;;;;;5061493;28;20026;-45
2021/01/20 01:53:31;;;;;;;4.07;2.20;;;;;;;;;;5066273;28;20036;-45
2021/01/20 01:55:59;;;;;;;4.80;2.63;;;;;;;;;;5065167;28;20081;-46
2021/01/20 01:58:25;;;;;;;7.15;3.08;;;;;;;;;;5065244;28;20036;-45
2021/01/20 02:00:51;;;;;;;6.22;2.58;;;;;;;;;;5064921;28;20046;-45
2021/01/20 02:03:17;;;;;;;6.18;2.88;;;;;;;;;;5065186;28;20550;-44
2021/01/20 02:05:45;;;;;;;5.88;2.60;;;;;;;;;;5064180;28;20031;-46
2021/01/20 02:08:11;;;;;;;6.25;2.60;;;;;;;;;;5064844;28;20029;-45
2021/01/20 02:10:37;;;;;;;6.43;3.00;;;;;;;;;;5065124;28;20311;-45
2021/01/20 02:13:09;;;;;;;6.40;2.38;;;;;;;;;;5065754;28;20028;-44
2021/01/20 02:15:48;;;;;;;6.68;2.67;;;;;;;;;;5065395;28;20029;-44
2021/01/20 02:18:21;;;;;;;4.03;2.10;;;;;;;;;;5065054;28;20521;-45
2021/01/20 02:20:59;;;;;;;4.15;2.28;;;;;;;;;;5064956;28;20020;-46
2021/01/20 02:23:26;;;;;;;5.25;2.72;;;;;;;;;;5065149;28;20024;-45
2021/01/20 02:25:55;;;;;;;7.05;3.20;;;;;;;;;;5063868;28;20028;-45
2021/01/20 02:28:33;;;;;;;8.82;2.83;;;;;;;;;;5064570;28;20166;-46
2021/01/20 02:31:00;;;;;;;8.90;3.28;;;;;;;;;;5065502;28;20103;-44
2021/01/20 02:33:26;;;;;;;4.60;2.63;;;;;;;;;;5064651;28;20419;-47
2021/01/20 02:35:58;;;;;;;3.92;2.58;;;;;;;;;;5064780;28;20061;-45
2021/01/20 02:38:25;;;;;;;6.40;2.67;;;;;;;;;;5064622;28;20399;-45
2021/01/20 02:40:51;;;;;;;5.20;2.47;;;;;;;;;;5064549;28;20117;-44
2021/01/20 02:43:24;;;;;;;5.40;2.22;;;;;;;;;;5064510;28;20032;-46
2021/01/20 02:45:50;;;;;;;4.93;2.70;;;;;;;;;;5064977;28;20561;-44
2021/01/20 02:48:16;;;;;;;6.18;2.67;;;;;;;;;;5064469;28;20023;-44
2021/01/20 02:50:42;;;;;;;6.43;2.90;;;;;;;;;;5064149;28;20017;-45
2021/01/20 02:53:19;;;;;;;3.63;2.10;;;;;;;;;;5064354;28;20494;-45
2021/01/20 02:55:49;;;;;;;6.13;2.70;;;;;;;;;;5064920;28;20034;-44
2021/01/20 02:58:21;;;;;;;7.70;2.58;;;;;;;;;;5064123;28;20074;-46
2021/01/20 03:00:49;;;;;;;5.13;2.90;;;;;;;;;;5064666;28;20016;-44
2021/01/20 03:03:16;;;;;;;6.35;3.10;;;;;;;;;;5064291;28;20024;-44
2021/01/20 03:05:44;;;;;;;8.00;2.80;;;;;;;;;;5063428;28;20037;-44
2021/01/20 03:08:10;;;;;;;4.93;3.05;;;;;;;;;;5063946;28;20028;-45
2021/01/20 03:10:36;;;;;;;4.63;2.38;;;;;;;;;;5064396;28;20482;-45
2021/01/20 03:13:02;;;;;;;6.85;3.38;;;;;;;;;;5064832;28;20107;-48
2021/01/20 03:15:39;;;;;;;5.65;2.88;;;;;;;;;;5065177;28;20021;-46
2021/01/20 03:18:05;;;;;;;6.05;2.85;;;;;;;;;;5064372;28;20104;-45
2021/01/20 03:20:31;;;;;;;4.97;2.22;;;;;;;;;;5065084;28;20025;-45
2021/01/20 03:22:58;;;;;;;6.35;2.83;;;;;;;;;;5064023;28;20024;-46
2021/01/20 03:25:24;;;;;;;7.45;2.58;;;;;;;;;;5064294;28;20533;-49
2021/01/20 03:27:50;;;;;;;2.90;2.45;;;;;;;;;;5064230;28;20052;-44
2021/01/20 03:30:17;;;;;;;6.03;2.55;;;;;;;;;;5064225;28;20173;-46
2021/01/20 03:32:44;;;;;;;4.50;2.30;;;;;;;;;;5063841;28;20039;-45
2021/01/20 03:35:11;;;;;;;4.38;2.38;;;;;;;;;;5063211;28;20035;-45
2021/01/20 03:37:37;;;;;;;4.20;2.00;;;;;;;;;;5063907;28;20027;-45
2021/01/20 03:40:04;;;;;;;5.68;2.65;;;;;;;;;;5064834;28;20025;-44
2021/01/20 03:42:30;;;;;;;4.97;1.95;;;;;;;;;;5064673;28;20086;-45
2021/01/20 03:44:57;;;;;;;6.70;2.75;;;;;;;;;;5064067;28;20041;-44
2021/01/20 03:47:24;;;;;;;3.60;2.30;;;;;;;;;;5062301;28;20458;-45
2021/01/20 03:49:50;;;;;;;6.72;2.10;;;;;;;;;;5064532;28;20033;-45
2021/01/20 03:52:16;;;;;;;5.90;2.28;;;;;;;;;;5064250;28;20104;-45
2021/01/20 03:54:43;;;;;;;6.13;2.67;;;;;;;;;;5063769;28;20445;-45
2021/01/20 03:57:09;;;;;;;3.33;1.92;;;;;;;;;;5063699;28;20104;-46
2021/01/20 03:59:36;;;;;;;5.07;2.13;;;;;;;;;;5063301;28;20494;-46
2021/01/20 04:02:05;;;;;;;4.38;2.03;;;;;;;;;;5063710;28;20020;-45
2021/01/20 04:04:31;;;;;;;7.38;2.40;;;;;;;;;;5066176;28;20025;-47
2021/01/20 04:06:59;;;;;;;5.68;1.70;;;;;;;;;;5067694;28;20036;-47
2021/01/20 04:09:25;;;;;;;6.47;2.00;;;;;;;;;;5067696;28;20082;-45
2021/01/20 04:11:51;;;;;;;7.70;2.88;;;;;;;;;;5067225;28;20024;-45
2021/01/20 04:14:16;;;;;;;6.15;2.13;;;;;;;;;;5067912;28;20364;-45
2021/01/20 04:16:43;;;;;;;5.53;2.00;;;;;;;;;;5067606;28;20024;-47
2021/01/20 04:19:09;;;;;;;5.47;1.60;;;;;;;;;;5067490;28;20039;-45
2021/01/20 04:21:35;;;;;;;6.15;1.73;;;;;;;;;;5067130;28;20025;-46
2021/01/20 04:24:02;;;;;;;6.45;1.92;;;;;;;;;;5066175;28;20567;-45
2021/01/20 04:26:29;;;;;;;5.30;1.75;;;;;;;;;;5067197;28;20071;-45
2021/01/20 04:28:55;;;;;;;6.63;2.05;;;;;;;;;;5067065;28;20025;-46
2021/01/20 04:31:22;;;;;;;6.53;1.85;;;;;;;;;;5067012;28;20024;-45
2021/01/20 04:33:48;;;;;;;5.00;1.83;;;;;;;;;;5066801;28;20028;-45
2021/01/20 04:36:15;;;;;;;4.30;1.42;;;;;;;;;;5068278;28;20024;-45
2021/01/20 04:38:41;;;;;;;2.80;1.38;;;;;;;;;;5067441;28;20082;-45
2021/01/20 04:41:08;;;;;;;2.97;1.50;;;;;;;;;;5067318;28;20439;-44
2021/01/20 04:43:35;;;;;;;2.83;1.30;;;;;;;;;;5066883;28;20066;-45
2021/01/20 04:46:02;;;;;;;5.63;1.50;;;;;;;;;;5066810;28;20498;-45
2021/01/20 04:48:32;;;;;;;2.08;1.10;;;;;;;;;;5066837;28;20506;-47
2021/01/20 04:51:02;;;;;;;4.63;1.48;;;;;;;;;;5066803;28;20036;-45
2021/01/20 04:53:31;;;;;;;1.73;0.98;;;;;;;;;;5066756;28;20383;-45
2021/01/20 04:56:01;;;;;;;2.58;1.20;;;;;;;;;;5066794;28;20025;-47
2021/01/20 04:58:28;;;;;;;5.10;1.52;;;;;;;;;;5066233;28;20033;-47
2021/01/20 05:00:55;;;;;;;2.03;1.20;;;;;;;;;;5066105;28;20568;-47
2021/01/20 05:03:21;;;;;;;3.45;1.23;;;;;;;;;;5065780;28;20024;-44
2021/01/20 05:05:47;;;;;;;3.63;1.70;;;;;;;;;;5065725;28;20513;-46
2021/01/20 05:08:13;;;;;;;3.67;1.50;;;;;;;;;;5067143;28;20032;-45
2021/01/20 05:10:39;;;;;;;8.30;2.05;;;;;;;;;;5066477;28;20522;-48
2021/01/20 05:13:22;;;;;;;4.30;1.40;;;;;;;;;;5066288;28;20104;-45
2021/01/20 05:15:48;;;;;;;3.60;1.35;;;;;;;;;;5066190;28;20060;-44
2021/01/20 05:18:15;;;;;;;4.28;1.35;;;;;;;;;;5067002;28;20028;-45
2021/01/20 05:20:41;;;;;;;3.30;1.20;;;;;;;;;;5066739;28;20107;-45
2021/01/20 05:23:08;;;;;;;3.85;1.40;;;;;;;;;;5066242;28;20124;-44
2021/01/20 05:25:36;;;;;;;2.72;1.00;;;;;;;;;;5065912;28;20116;-45
2021/01/20 05:28:23;;;;;;;6.32;1.38;;;;;;;;;;5066728;28;20028;-45
2021/01/20 05:30:55;;;;;;;6.00;1.40;;;;;;;;;;5065673;28;20109;-45
2021/01/20 05:33:25;;;;;;;2.85;1.10;;;;;;;;;;5066316;28;20024;-46
2021/01/20 05:36:10;;;;;;;3.78;1.30;;;;;;;;;;5065883;28;20020;-44
2021/01/20 05:38:37;;;;;;;;;;;;;;;;;;5066002;28;20040;-45
2021/01/20 05:41:21;;;;;;;5.53;1.27;;;;;;;;;;5065072;28;19911;-46
2021/01/20 05:43:49;;;;;;;6.55;2.22;;;;;;;;;;5065782;28;20028;-48
2021/01/20 05:46:28;;;;;;;2.95;1.20;;;;;;;;;;5064702;28;20032;-45
2021/01/20 05:48:55;;;;;;;4.13;1.30;;;;;;;;;;5065699;28;20071;-47
2021/01/20 05:51:21;;;;;;;3.50;1.20;;;;;;;;;;5064291;28;20132;-46
2021/01/20 05:53:51;;;;;;;5.60;1.60;;;;;;;;;;5065390;28;20080;-47
2021/01/20 05:56:24;;;;;;;3.10;1.05;;;;;;;;;;5065560;28;20027;-45
2021/01/20 05:58:50;;;;;;;5.57;1.17;;;;;;;;;;5064614;28;20032;-45
2021/01/20 06:01:17;;;;;;;4.35;1.08;;;;;;;;;;5064500;28;20226;-45
2021/01/20 06:03:44;;;;;;;5.10;1.38;;;;;;;;;;5064866;28;20028;-45
2021/01/20 06:06:11;;;;;;;4.55;1.20;;;;;;;;;;5065109;28;20122;-45
2021/01/20 06:08:38;;;;;;;4.80;1.52;;;;;;;;;;5065287;28;20081;-44
2021/01/20 06:11:05;;;;;;;3.72;1.77;;;;;;;;;;5065229;28;20394;-44
2021/01/20 06:13:31;;;;;;;3.83;1.45;;;;;;;;;;5065177;28;20344;-45
2021/01/20 06:15:59;;;;;;;4.53;1.40;;;;;;;;;;5065477;28;20021;-45
2021/01/20 06:18:25;;;;;;;3.58;1.30;;;;;;;;;;5065590;28;20021;-45
2021/01/20 06:20:53;;;;;;;3.38;1.48;;;;;;;;;;5064370;28;20479;-44
2021/01/20 06:23:22;;;;;;;4.93;1.35;;;;;;;;;;5064360;28;20073;-46
2021/01/20 06:25:51;;;;;;;5.05;1.25;;;;;;;;;;5064558;28;20399;-44
2021/01/20 06:28:18;;;;;;;3.67;1.52;;;;;;;;;;5064929;28;20139;-45
2021/01/20 06:30:44;;;;;;;4.53;1.40;;;;;;;;;;5064915;28;20313;-45
2021/01/20 06:33:11;;;;;;;10.13;1.52;;;;;;;;;;5064481;28;20111;-45
2021/01/20 06:35:45;;;;;;;6.88;1.60;;;;;;;;;;5065020;28;20032;-46
2021/01/20 06:38:29;;;;;;;4.28;1.48;;;;;;;;;;5064597;28;20033;-45
2021/01/20 06:40:57;;;;;;;2.83;1.17;;;;;;;;;;5064495;28;20442;-45
2021/01/20 06:43:55;;;;;;;5.43;1.70;;;;;;;;;;5064541;28;20020;-45
2021/01/20 06:46:25;;;;;;;5.10;1.83;;;;;;;;;;5020328;28;20047;-45
2021/01/20 06:48:54;;;;;;;4.55;1.63;;;;;;;;;;5064621;28;20043;-45
2021/01/20 06:51:22;;;;;;;2.55;1.08;;;;;;;;;;5064482;28;20054;-47
2021/01/20 06:56:32;;;;;;;3.35;1.02;;;;;;;;;;5065247;28;20440;-45
2021/01/20 06:59:18;;;;;;;2.03;1.00;;;;;;;;;;5064381;28;20025;-45
2021/01/20 07:02:02;;;;;;;3.13;1.50;;;;;;;;;;5063769;28;20032;-45
2021/01/20 07:04:40;;;;;;;3.88;1.42;;;;;;;;;;5064859;28;20453;-45
2021/01/20 07:07:13;;;;;;;3.10;1.15;;;;;;;;;;5064300;28;20025;-46
2021/01/20 07:09:51;;;;;;;3.33;1.10;;;;;;;;;;5064631;28;20506;-44
2021/01/20 07:12:19;;;;;;;2.35;1.10;;;;;;;;;;5064160;28;20403;-44
2021/01/20 07:14:45;;;;;;;2.28;1.20;;;;;;;;;;5064499;28;20107;-45
2021/01/20 07:17:12;;;;;;;4.68;1.33;;;;;;;;;;5064203;28;20047;-45
2021/01/20 07:19:40;;;;;;;5.28;1.40;;;;;;;;;;5064488;28;20028;-46
2021/01/20 07:22:07;;;;;;;4.10;1.38;;;;;;;;;;5064071;28;20032;-44
2021/01/20 07:24:34;;;;;;;5.57;1.20;;;;;;;;;;5064248;28;20107;-46
2021/01/20 07:27:07;;;;;;;3.78;1.80;;;;;;;;;;5064646;28;20088;-47
2021/01/20 07:29:33;;;;;;;4.97;1.73;;;;;;;;;;5064319;28;20017;-44
2021/01/20 07:31:59;;;;;;;3.28;1.35;;;;;;;;;;5062293;28;20082;-45
2021/01/20 07:34:39;;;;;;;4.22;1.40;;;;;;;;;;5064245;28;20031;-45
2021/01/20 07:37:15;;;;;;;3.67;1.40;;;;;;;;;;5064098;28;20025;-45
2021/01/20 07:39:41;;;;;;;4.55;1.30;;;;;;;;;;5068264;28;20113;-44
2021/01/20 07:42:08;;;;;;;2.53;1.20;;;;;;;;;;5066990;28;20269;-44
2021/01/20 07:44:46;;;;;;;3.13;1.20;;;;;;;;;;5067146;28;20536;-44
2021/01/20 07:47:12;;;;;;;2.88;1.30;;;;;;;;;;5066461;28;20047;-45
2021/01/20 07:49:38;;;;;;;2.15;1.20;;;;;;;;;;5068569;28;20024;-44
2021/01/20 07:52:04;;;;;;;2.17;1.00;;;;;;;;;;5067992;28;20056;-45
2021/01/20 07:54:40;;;;;;;2.97;1.05;;;;;;;;;;5067886;28;20048;-44
2021/01/20 07:57:08;;;;;;;2.15;1.00;;;;;;;;;;5067100;28;20025;-46
2021/01/20 07:59:35;;;;;;;1.63;0.82;;;;;;;;;;5048675;28;20035;-45
2021/01/20 08:02:10;;;;;;;6.15;1.40;;;;;;;;;;5069293;28;20407;-45
2021/01/20 08:04:36;;;;;;;4.22;1.10;;;;;;;;;;5069141;28;20111;-45
2021/01/20 08:07:03;;;;;;;5.07;1.33;;;;;;;;;;5066411;28;20036;-44
2021/01/20 08:09:49;;;;;;;3.38;1.20;;;;;;;;;;5067204;28;20090;-44
2021/01/20 08:12:17;;;;;;;3.83;1.50;;;;;;;;;;5068386;28;20129;-47
2021/01/20 08:14:44;;;;;;;3.53;1.13;;;;;;;;;;5067068;28;20017;-45
2021/01/20 08:17:13;;;;;;;3.95;1.15;;;;;;;;;;5065544;28;20052;-44
2021/01/20 08:19:39;;;;;;;4.65;1.50;;;;;;;;;;5066963;28;20016;-46
2021/01/20 08:22:10;;;;;;;3.35;1.15;;;;;;;;;;5067930;28;20569;-45
2021/01/20 08:24:36;;;;;;;2.22;1.30;;;;;;;;;;5065136;28;20092;-45
2021/01/20 08:27:02;;;;;;;4.80;1.75;;;;;;;;;;5056894;28;20163;-45
2021/01/20 08:29:28;;;;;;;5.82;1.20;;;;;;;;;;5049649;28;20102;-45
2021/01/20 08:32:11;;;;;;;3.08;1.20;;;;;;;;;;5066574;28;20055;-45
2021/01/20 08:34:39;;;;;;;3.25;1.30;;;;;;;;;;5065621;28;20095;-45
2021/01/20 08:37:08;;;;;;;4.15;1.00;;;;;;;;;;5065008;28;20530;-45
2021/01/20 08:39:38;;;;;;;4.45;1.38;;;;;;;;;;5066345;28;20032;-45
2021/01/20 08:42:14;;;;;;;3.35;1.10;;;;;;;;;;5065932;28;20051;-45
2021/01/20 08:44:41;;;;;;;6.50;1.50;;;;;;;;;;5065871;28;20071;-45
2021/01/20 08:47:08;;;;;;;3.25;1.17;;;;;;;;;;5066753;28;20032;-44
2021/01/20 08:49:34;;;;;;;6.68;1.33;;;;;;;;;;5066149;28;20024;-45
2021/01/20 08:52:00;;;;;;;2.65;1.33;;;;;;;;;;5066550;28;20143;-45
2021/01/20 08:54:26;;;;;;;4.10;1.30;;;;;;;;;;5067279;28;20017;-46
2021/01/20 08:56:53;;;;;;;4.95;1.63;;;;;;;;;;5066821;28;20044;-44
2021/01/20 08:59:21;;;;;;;5.13;1.58;;;;;;;;;;5066078;28;20071;-45
2021/01/20 09:01:47;;;;;;;3.42;1.10;;;;;;;;;;5066749;28;20030;-44
2021/01/20 09:04:13;;;;;;;1.70;1.05;;;;;;;;;;5066607;28;20016;-45
2021/01/20 09:06:40;;;;;;;3.42;1.65;;;;;;;;;;5066679;28;20103;-47
2021/01/20 09:09:07;;;;;;;7.03;1.60;;;;;;;;;;5066157;28;20029;-45
2021/01/20 09:11:33;;;;;;;4.97;1.52;;;;;;;;;;5066506;28;20051;-45
2021/01/20 09:13:59;;;;;;;5.40;1.48;;;;;;;;;;5066592;28;20020;-44
2021/01/20 09:16:29;;;;;;;6.65;1.85;;;;;;;;;;5066976;28;20032;-44
2021/01/20 09:18:55;;;;;;;5.57;1.65;;;;;;;;;;5066109;28;20118;-45
2021/01/20 09:21:21;;;;;;;5.70;1.80;;;;;;;;;;5066380;28;20406;-46
2021/01/20 09:23:52;;;;;;;5.97;2.40;;;;;;;;;;5066284;28;20040;-45
2021/01/20 09:26:18;;;;;;;4.18;1.50;;;;;;;;;;5066237;28;20448;-46
2021/01/20 09:28:44;;;;;;;5.30;1.25;;;;;;;;;;5066074;28;20074;-44
2021/01/20 09:31:10;;;;;;;7.70;1.77;;;;;;;;;;5065946;28;20060;-44
2021/01/20 09:33:36;;;;;;;5.97;1.33;;;;;;;;;;5066018;28;20025;-46
2021/01/20 09:36:03;;;;;;;6.20;1.40;;;;;;;;;;5065635;28;20100;-46
2021/01/20 09:38:29;;;;;;;3.17;1.40;;;;;;;;;;5066345;28;20039;-44
2021/01/20 09:40:55;;;;;;;5.78;1.80;;;;;;;;;;5066352;28;20032;-46
2021/01/20 09:43:23;;;;;;;5.60;1.27;;;;;;;;;;5064649;28;20028;-45
2021/01/20 09:45:50;;;;;;;6.32;1.52;;;;;;;;;;5065553;28;20024;-46
2021/01/20 09:48:16;;;;;;;6.25;2.13;;;;;;;;;;5065706;28;20056;-45
2021/01/20 09:50:44;;;;;;;7.53;1.60;;;;;;;;;;5065781;28;20024;-45
2021/01/20 09:53:12;;;;;;;6.95;1.85;;;;;;;;;;5064255;28;20025;-45
2021/01/20 09:55:38;;;;;;;3.88;1.15;;;;;;;;;;5065746;28;20529;-43
2021/01/20 09:58:04;;;;;;;7.80;1.58;;;;;;;;;;5065062;28;20507;-45
2021/01/20 10:00:30;;;;;;;2.80;1.10;;;;;;;;;;5064802;28;20028;-43
2021/01/20 10:02:56;;;;;;;4.38;1.38;;;;;;;;;;5065872;28;20024;-45
2021/01/20 10:05:22;;;;;;;5.47;1.45;;;;;;;;;;5065419;28;20029;-45
2021/01/20 10:07:48;;;;;;;4.97;1.60;;;;;;;;;;5062466;28;20036;-44
2021/01/20 10:10:16;;;;;;;4.57;1.52;;;;;;;;;;5063396;28;20398;-46
2021/01/20 10:12:42;;;;;;;5.70;1.30;;;;;;;;;;5063569;28;20024;-46
2021/01/20 10:15:09;;;;;;;4.13;1.58;;;;;;;;;;5064383;28;20025;-47
2021/01/20 10:17:35;;;;;;;6.47;2.03;;;;;;;;;;5064739;28;20016;-44
2021/01/20 10:20:01;;;;;;;3.72;1.42;;;;;;;;;;5064964;28;20025;-44
2021/01/20 10:22:27;;;;;;;5.05;1.80;;;;;;;;;;5065682;28;20536;-45
2021/01/20 10:24:53;;;;;;;4.65;1.58;;;;;;;;;;5064813;28;20743;-45
2021/01/20 10:27:19;;;;;;;6.82;1.80;;;;;;;;;;5064924;28;20460;-46
2021/01/20 10:29:45;;;;;;;8.35;1.95;;;;;;;;;;5065012;28;20035;-46
2021/01/20 10:32:11;;;;;;;5.53;1.73;;;;;;;;;;5064801;28;20020;-46
2021/01/20 10:34:37;;;;;;;6.95;1.45;;;;;;;;;;5066516;28;20563;-46
2021/01/20 10:37:05;;;;;;;6.03;2.10;;;;;;;;;;5066008;28;20013;-46
2021/01/20 10:39:31;;;;;;;4.65;1.92;;;;;;;;;;5064708;28;20438;-45
2021/01/20 10:41:57;;;;;;;6.05;1.88;;;;;;;;;;5065069;28;20452;-45
2021/01/20 10:44:23;;;;;;;6.38;1.90;;;;;;;;;;5064758;28;20037;-46
2021/01/20 10:46:49;;;;;;;5.03;1.60;;;;;;;;;;5064512;28;20028;-44
2021/01/20 10:49:16;;;;;;;5.32;2.10;;;;;;;;;;5064908;28;20041;-44
2021/01/20 10:51:42;;;;;;;8.13;1.50;;;;;;;;;;5064648;28;20033;-44
2021/01/20 10:54:08;;;;;;;6.32;1.90;;;;;;;;;;5046250;28;20472;-45
2021/01/20 10:56:34;;;;;;;8.90;2.03;;;;;;;;;;5064666;28;20059;-47
2021/01/20 10:59:01;;;;;;;5.20;1.60;;;;;;;;;;5064151;28;20028;-45
2021/01/20 11:01:27;;;;;;;5.78;1.65;;;;;;;;;;5065239;28;20062;-48
2021/01/20 11:03:53;;;;;;;4.07;1.60;;;;;;;;;;5064100;28;20103;-45
2021/01/20 11:06:19;;;;;;;4.60;1.85;;;;;;;;;;5064623;28;20103;-48
2021/01/20 11:08:45;;;;;;;5.93;1.83;;;;;;;;;;5064778;28;20033;-48
2021/01/20 11:11:12;;;;;;;5.60;1.83;;;;;;;;;;5063978;28;20094;-47
2021/01/20 11:13:39;;;;;;;6.32;1.73;;;;;;;;;;5064726;28;20028;-46
2021/01/20 11:16:05;;;;;;;7.60;1.77;;;;;;;;;;5064328;28;20024;-45
2021/01/20 11:18:36;;;;;;;6.55;1.85;;;;;;;;;;5064248;28;20028;-45
2021/01/20 11:21:03;;;;;;;4.63;1.38;;;;;;;;;;5064195;28;20071;-44
2021/01/20 11:23:40;;;;;;;8.63;1.60;;;;;;;;;;5064456;28;20024;-44
2021/01/20 11:26:08;;;;;;;3.08;1.17;;;;;;;;;;5062711;28;20091;-45
2021/01/20 11:28:34;;;;;;;2.85;1.27;;;;;;;;;;5064729;28;20574;-46
2021/01/20 11:31:01;;;;;;;6.85;1.98;;;;;;;;;;5064047;28;20036;-45
2021/01/20 11:33:27;;;;;;;3.05;1.25;;;;;;;;;;5064967;28;20043;-45
2021/01/20 11:35:53;;;;;;;5.25;1.42;;;;;;;;;;5062238;28;20063;-47
2021/01/20 11:38:19;;;;;;;3.03;1.58;;;;;;;;;;5062856;28;20101;-43
2021/01/20 11:40:45;;;;;;;4.13;1.80;;;;;;;;;;5065768;28;20025;-47
2021/01/20 11:43:11;;;;;;;8.20;1.73;;;;;;;;;;5065275;28;20033;-45
2021/01/20 11:45:38;;;;;;;4.22;1.40;;;;;;;;;;5059062;28;20498;-44
2021/01/20 11:48:05;;;;;;;6.68;1.80;;;;;;;;;;5063576;28;20036;-44
2021/01/20 11:50:32;;;;;;;4.72;1.27;;;;;;;;;;5063962;28;20020;-43
2021/01/20 11:52:59;;;;;;;3.28;1.40;;;;;;;;;;5063672;28;20064;-44
2021/01/20 11:55:25;;;;;;;6.47;1.50;;;;;;;;;;5061174;28;20024;-44
2021/01/20 11:57:51;;;;;;;3.45;1.38;;;;;;;;;;5063091;28;20047;-45
2021/01/20 12:00:18;;;;;;;6.55;1.52;;;;;;;;;;5061335;28;20455;-45
2021/01/20 12:02:44;;;;;;;5.60;1.90;;;;;;;;;;5061884;28;20036;-44
2021/01/20 12:05:12;;;;;;;5.03;1.50;;;;;;;;;;5063755;28;20449;-49
2021/01/20 12:07:38;;;;;;;4.70;1.50;;;;;;;;;;5063920;28;20442;-44
2021/01/20 12:10:05;;;;;;;6.45;1.30;;;;;;;;;;5047296;28;20025;-49
2021/01/20 12:12:31;;;;;;;7.20;1.27;;;;;;;;;;5044788;28;20024;-47
2021/01/20 12:14:57;;;;;;;7.75;1.52;;;;;;;;;;5057873;28;20020;-45
2021/01/20 12:17:23;;;;;;;3.95;1.35;;;;;;;;;;5062893;28;20040;-43
2021/01/20 12:19:50;;;;;;;5.00;1.60;;;;;;;;;;5062899;28;20328;-44
2021/01/20 12:22:17;;;;;;;2.95;1.30;;;;;;;;;;5061889;28;20075;-45
2021/01/20 12:24:43;;;;;;;5.70;1.40;;;;;;;;;;5064184;28;20101;-45
2021/01/20 12:27:09;;;;;;;4.40;1.45;;;;;;;;;;5066103;28;20494;-48
2021/01/20 12:29:35;;;;;;;6.55;1.73;;;;;;;;;;5068007;28;20029;-44
2021/01/20 12:32:01;;;;;;;8.05;2.20;;;;;;;;;;5066748;28;20037;-49
2021/01/20 12:34:27;;;;;;;5.63;1.48;;;;;;;;;;5066238;28;20024;-45
2021/01/20 12:36:53;;;;;;;6.45;1.27;;;;;;;;;;5065262;28;20036;-43
2021/01/20 12:39:20;;;;;;;4.55;1.60;;;;;;;;;;5066062;28;20496;-47
2021/01/20 12:41:46;;;;;;;5.20;1.30;;;;;;;;;;5066608;28;20031;-46
2021/01/20 12:44:12;;;;;;;6.47;1.90;;;;;;;;;;5064659;28;20025;-45
2021/01/20 12:46:39;;;;;;;5.95;1.65;;;;;;;;;;5064927;28;20206;-45
2021/01/20 12:49:06;;;;;;;4.55;1.38;;;;;;;;;;5066052;28;20031;-47
2021/01/20 12:51:32;;;;;;;7.53;1.70;;;;;;;;;;5067325;28;20028;-46
2021/01/20 12:53:59;;;;;;;6.47;1.50;;;;;;;;;;5064047;28;20103;-44
2021/01/20 12:56:25;;;;;;;7.45;1.55;;;;;;;;;;5066493;28;20035;-45
2021/01/20 12:58:51;;;;;;;4.95;1.40;;;;;;;;;;5066241;28;20020;-45
2021/01/20 13:01:17;;;;;;;8.30;1.73;;;;;;;;;;5065980;28;20031;-44
2021/01/20 13:03:44;;;;;;;5.65;1.40;;;;;;;;;;5066640;28;20457;-45
2021/01/20 13:06:10;;;;;;;5.68;1.20;;;;;;;;;;5064142;28;20047;-48
2021/01/20 13:08:36;;;;;;;3.47;1.33;;;;;;;;;;5067600;28;20029;-46
2021/01/20 13:11:02;;;;;;;6.20;1.52;;;;;;;;;;5066959;28;20542;-45
2021/01/20 13:13:30;;;;;;;4.90;1.20;;;;;;;;;;5048086;28;20021;-45
2021/01/20 13:15:56;;;;;;;7.72;1.73;;;;;;;;;;5050210;28;20028;-44
2021/01/20 13:18:22;;;;;;;5.07;1.20;;;;;;;;;;5063362;28;20028;-48
2021/01/20 13:20:48;;;;;;;7.07;1.85;;;;;;;;;;5065669;28;20407;-45
2021/01/20 13:23:15;;;;;;;5.00;1.38;;;;;;;;;;5066336;28;20033;-48
2021/01/20 13:25:41;;;;;;;4.53;1.50;;;;;;;;;;5066156;28;20383;-46
2021/01/20 13:28:08;;;;;;;4.28;1.63;;;;;;;;;;5066177;28;20863;-46
2021/01/20 13:30:34;;;;;;;5.00;1.10;;;;;;;;;;5066739;28;20028;-45
2021/01/20 13:33:00;;;;;;;4.60;1.10;;;;;;;;;;5066376;28;20414;-44
2021/01/20 13:35:27;;;;;;;5.85;1.70;;;;;;;;;;5066074;28;20052;-45
2021/01/20 13:37:53;;;;;;;7.13;1.42;;;;;;;;;;5065296;28;20035;-44
2021/01/20 13:40:19;;;;;;;4.10;1.00;;;;;;;;;;5065497;28;20024;-45
2021/01/20 13:42:45;;;;;;;4.75;1.10;;;;;;;;;;5065052;28;20029;-44
2021/01/20 13:45:12;;;;;;;4.07;1.50;;;;;;;;;;5065548;28;20037;-44
2021/01/20 13:47:38;;;;;;;4.18;1.05;;;;;;;;;;5064668;28;20028;-44
2021/01/20 13:50:04;;;;;;;4.65;1.10;;;;;;;;;;5064880;28;20059;-44
2021/01/20 13:52:31;;;;;;;4.25;1.50;;;;;;;;;;5065248;28;20024;-45
2021/01/20 13:54:57;;;;;;;5.75;1.73;;;;;;;;;;5064682;28;20132;-46
2021/01/20 13:57:23;;;;;;;5.97;1.27;;;;;;;;;;5064943;28;20101;-47
2021/01/20 13:59:49;;;;;;;3.10;0.90;;;;;;;;;;5063839;28;20039;-45
2021/01/20 14:02:15;;;;;;;4.72;1.50;;;;;;;;;;5066012;28;20025;-44
2021/01/20 14:04:42;;;;;;;5.30;1.70;;;;;;;;;;5064111;28;20036;-47
2021/01/20 14:07:10;;;;;;;4.90;2.28;;;;;;;;;;5063655;28;20060;-46
2021/01/20 14:09:37;;;;;;;4.82;1.63;;;;;;;;;;5063858;28;20032;-46
2021/01/20 14:12:04;;;;;;;3.22;1.33;;;;;;;;;;5064420;28;20502;-46
2021/01/20 14:14:32;;;;;;;5.03;1.50;;;;;;;;;;5064914;28;20069;-45
2021/01/20 14:16:59;;;;;;;5.28;1.67;;;;;;;;;;5063751;28;20111;-47
2021/01/20 14:19:25;;;;;;;8.02;2.03;;;;;;;;;;5064727;28;20032;-46
2021/01/20 14:21:51;;;;;;;3.05;1.23;;;;;;;;;;5066440;28;20029;-45
2021/01/20 14:24:19;;;;;;;2.55;1.00;;;;;;;;;;5066202;28;20115;-46
2021/01/20 14:26:47;;;;;;;6.93;1.90;;;;;;;;;;5064751;28;20442;-46
2021/01/20 14:29:14;;;;;;;8.25;1.38;;;;;;;;;;5064228;28;20020;-47
2021/01/20 14:31:40;;;;;;;3.15;1.30;;;;;;;;;;5063472;28;20033;-46
2021/01/20 14:34:06;;;;;;;3.83;1.20;;;;;;;;;;5063647;28;20055;-46
2021/01/20 14:36:32;;;;;;;3.63;1.45;;;;;;;;;;5063975;28;20507;-45
2021/01/20 14:38:58;;;;;;;5.35;1.40;;;;;;;;;;5062773;28;20043;-47
2021/01/20 14:41:24;;;;;;;4.78;1.25;;;;;;;;;;5062013;28;20316;-45
2021/01/20 14:43:50;;;;;;;3.60;1.17;;;;;;;;;;5063616;28;20206;-45
2021/01/20 14:46:17;;;;;;;2.47;1.10;;;;;;;;;;5064082;28;20712;-48
2021/01/20 14:48:43;;;;;;;3.83;1.70;;;;;;;;;;5060129;28;20030;-45